To NAV CANADA Home Page Login to a new session Search on AWWS site Disclaimer Vers la page française équivalente Tips FAQ What's new on the site To the Forecasts and Observations / NOTAM section To "File a Flight Plan" website Publications and other links Update of the User's profile FIC Telephone Numbers My Weather Data Folder Route Weather Data Regional Weather Data Local Weather Data To the Forecasts and Observations / NOTAM section
Request Generated 04/24/2019 at 16:44:17 UTC . Weather information available at that time is displayed.

METAR/TAF

CARTWRIGHT/NL    (show WxCam)

METAR CYCA 241600Z AUTO 02007KT 9SM CLR M01/M07 A3015 RMK SLP211=
METAR CYCA 241500Z AUTO 02006KT 9SM BKN220 M02/M07 A3016 RMK SLP214=
METAR CYCA 241400Z AUTO 03004KT 9SM BKN160 OVC180 M03/M07 A3017 RMK SLP220=

TAF CYCA 241338Z 2414/2502 VRB03KT P6SM BKN190
FM241700 04010KT P6SM SKC
BECMG 2423/2501 VRB03KT
RMK FCST BASED ON AUTO OBS. NXT FCST BY 242000Z=
Your time UTC time
Weather data provided by Environment Canada and NAV CANADA